Time;durP1;ratioP1;P1;durP2;ratioP2;P2;SDS_P1;SDS_P2;PMS_P1;PMS_P2;Temp;Humidity;BMP_temperature;BMP_pressure;BME280_temperature;BME280_humidity;BME280_pressure;Samples;Min_cycle;Max_cycle;Signal;HPM_P1;HPM_P2
2022/11/28 00:01:35;;;;;;;;;;;5.40;99.90;;;;;;5058965;28;19989;-80
2022/11/28 00:04:01;;;;;;;;;;;5.40;99.90;;;;;;5042200;28;19920;-80
2022/11/28 00:06:27;;;;;;;;;;;5.40;99.90;;;;;;5057520;28;19932;-80
2022/11/28 00:08:53;;;;;;;;;;;5.40;99.90;;;;;;5050252;28;19921;-80
2022/11/28 00:11:18;;;;;;;;;;;5.40;99.90;;;;;;5038747;28;20427;-80
2022/11/28 00:13:44;;;;;;;;;;;5.50;99.90;;;;;;5036330;28;19931;-80
2022/11/28 00:16:13;;;;;;;;;;;6.20;99.90;;;;;;5051676;28;19975;-80
2022/11/28 00:18:38;;;;;;;;;;;5.50;99.90;;;;;;5048645;28;19967;-80
2022/11/28 00:21:05;;;;;;;;;;;5.50;99.90;;;;;;5047557;28;19932;-80
2022/11/28 00:23:32;;;;;;;;;;;5.50;99.90;;;;;;5049329;28;19964;-80
2022/11/28 00:26:05;;;;;;;;;;;5.50;99.90;;;;;;5052803;28;19964;-79
2022/11/28 00:28:31;;;;;;;;;;;5.50;99.90;;;;;;5062628;28;19928;-79
2022/11/28 00:30:57;;;;;;;;;;;5.50;99.90;;;;;;5035692;28;19924;-80
2022/11/28 00:33:22;;;;;;;;;;;5.50;99.90;;;;;;5038247;28;19921;-80
2022/11/28 00:35:48;;;;;;;;;;;5.60;99.90;;;;;;5044015;28;20039;-80
2022/11/28 00:38:14;;;;;;;;;;;6.10;99.90;;;;;;5050698;28;19921;-80
2022/11/28 00:40:39;;;;;;;;;;;6.10;99.90;;;;;;5036732;28;20385;-80
2022/11/28 00:43:05;;;;;;;;;;;5.60;99.90;;;;;;5035883;28;19921;-79
2022/11/28 00:45:30;;;;;;;;;;;5.60;99.90;;;;;;5054801;28;19928;-80
2022/11/28 00:47:56;;;;;;;;;;;5.60;99.90;;;;;;5039528;28;19928;-79
2022/11/28 00:50:21;;;;;;;;;;;5.60;99.90;;;;;;5041520;28;19994;-80
2022/11/28 00:52:47;;;;;;;;;;;5.60;99.90;;;;;;5041993;28;19994;-79
2022/11/28 00:55:13;;;;;;;;;;;5.60;99.90;;;;;;5038344;28;19921;-80
2022/11/28 00:57:39;;;;;;;;;;;5.70;99.90;;;;;;5062612;28;19927;-80
2022/11/28 01:00:05;;;;;;;;;;;5.60;99.90;;;;;;5035925;28;19936;-80
2022/11/28 01:02:31;;;;;;;;;;;5.60;99.90;;;;;;5032181;28;19975;-80
2022/11/28 01:04:56;;;;;;;;;;;5.60;99.90;;;;;;5061324;28;19921;-80
2022/11/28 01:07:22;;;;;;;;;;;5.60;99.90;;;;;;5039918;28;20008;-80
2022/11/28 01:09:47;;;;;;;;;;;5.60;99.90;;;;;;5061157;28;19966;-80
2022/11/28 01:12:13;;;;;;;;;;;5.70;99.90;;;;;;5061825;28;19921;-79
2022/11/28 01:14:38;;;;;;;;;;;5.60;99.90;;;;;;5044704;28;19927;-80
2022/11/28 01:17:04;;;;;;;;;;;5.60;99.90;;;;;;5030899;28;19924;-79
2022/11/28 01:19:30;;;;;;;;;;;5.60;99.90;;;;;;5045331;28;19935;-80
2022/11/28 01:21:55;;;;;;;;;;;5.60;99.90;;;;;;5053998;28;19925;-79
2022/11/28 01:24:21;;;;;;;;;;;5.60;99.90;;;;;;5052745;28;19987;-80
2022/11/28 01:26:46;;;;;;;;;;;5.60;99.90;;;;;;5057579;28;19931;-79
2022/11/28 01:29:12;;;;;;;;;;;5.60;99.90;;;;;;5047420;28;19982;-80
2022/11/28 01:31:38;;;;;;;;;;;5.70;99.90;;;;;;5056023;28;20386;-78
2022/11/28 01:34:03;;;;;;;;;;;5.60;99.90;;;;;;5062956;28;19951;-80
2022/11/28 01:36:29;;;;;;;;;;;5.90;99.90;;;;;;5039210;28;20468;-79
2022/11/28 01:38:55;;;;;;;;;;;5.70;99.90;;;;;;5052861;28;19935;-80
2022/11/28 01:41:22;;;;;;;;;;;5.70;99.90;;;;;;5062028;28;19964;-79
2022/11/28 01:44:03;;;;;;;;;;;6.10;99.90;;;;;;5057434;28;19956;-79
2022/11/28 01:46:29;;;;;;;;;;;5.60;99.90;;;;;;5041409;28;20419;-80
2022/11/28 01:48:58;;;;;;;;;;;5.70;99.90;;;;;;5050938;28;19925;-80
2022/11/28 01:51:23;;;;;;;;;;;5.60;99.90;;;;;;5053349;28;20000;-80
2022/11/28 01:53:49;;;;;;;;;;;5.60;99.90;;;;;;5059856;28;20422;-80
2022/11/28 01:56:17;;;;;;;;;;;5.60;99.90;;;;;;5039944;28;20271;-80
2022/11/28 01:58:46;;;;;;;;;;;5.80;99.90;;;;;;5059556;28;19921;-80
2022/11/28 02:01:11;;;;;;;;;;;5.90;99.90;;;;;;5060229;28;19972;-80
2022/11/28 02:03:47;;;;;;;;;;;6.00;99.90;;;;;;5052076;28;19971;-79
2022/11/28 02:06:15;;;;;;;;;;;5.70;99.90;;;;;;5042238;28;20381;-80
2022/11/28 02:08:40;;;;;;;;;;;5.70;99.90;;;;;;5046435;28;19979;-79
2022/11/28 02:11:22;;;;;;;;;;;5.90;99.90;;;;;;5058983;28;20011;-79
2022/11/28 02:13:55;;;;;;;;;;;5.70;99.90;;;;;;5045089;28;20129;-80
2022/11/28 02:16:39;;;;;;;;;;;5.80;99.90;;;;;;5054839;28;19926;-80
2022/11/28 02:19:10;;;;;;;;;;;5.70;99.90;;;;;;5061593;28;19979;-80
2022/11/28 02:21:36;;;;;;;;;;;5.70;99.90;;;;;;5059949;28;19924;-80
2022/11/28 02:24:21;;;;;;;;;;;5.70;99.90;;;;;;5059104;28;19928;-80
2022/11/28 02:27:02;;;;;;;;;;;5.70;99.90;;;;;;5040237;28;19920;-80
2022/11/28 02:29:31;;;;;;;;;;;5.70;99.90;;;;;;5042894;28;19960;-80
2022/11/28 02:31:56;;;;;;;;;;;5.70;99.90;;;;;;5044424;28;19935;-80
2022/11/28 02:34:34;;;;;;;;;;;5.70;99.90;;;;;;5057144;28;20008;-80
2022/11/28 02:37:04;;;;;;;;;;;5.80;99.90;;;;;;5046689;28;20441;-80
2022/11/28 02:39:35;;;;;;;;;;;5.70;99.90;;;;;;5062381;28;19924;-80
2022/11/28 02:42:19;;;;;;;;;;;5.70;99.90;;;;;;5047335;28;19921;-80
2022/11/28 02:44:44;;;;;;;;;;;5.80;99.90;;;;;;5052733;28;19925;-80
2022/11/28 02:47:12;;;;;;;;;;;5.80;99.90;;;;;;5044346;28;20397;-80
2022/11/28 02:49:54;;;;;;;;;;;5.80;99.90;;;;;;5038597;28;19921;-80
2022/11/28 02:52:22;;;;;;;;;;;5.80;99.90;;;;;;5045058;28;19928;-79
2022/11/28 02:54:53;;;;;;;;;;;5.80;99.90;;;;;;5060081;28;20387;-80
2022/11/28 02:57:18;;;;;;;;;;;5.80;99.90;;;;;;5065222;28;20281;-80
2022/11/28 02:59:46;;;;;;;;;;;5.90;99.90;;;;;;5050654;28;19935;-80
2022/11/28 03:02:14;;;;;;;;;;;5.90;99.90;;;;;;5054082;28;20550;-80
2022/11/28 03:04:40;;;;;;;;;;;6.70;99.90;;;;;;5055524;28;20502;-80
2022/11/28 03:07:20;;;;;;;;;;;5.90;99.90;;;;;;5040903;28;19952;-80
2022/11/28 03:10:09;;;;;;;;;;;5.90;99.90;;;;;;5057322;28;19980;-80
2022/11/28 03:12:50;;;;;;;;;;;5.90;99.90;;;;;;5041388;28;19928;-80
2022/11/28 03:15:19;;;;;;;;;;;5.90;99.90;;;;;;5071639;28;19933;-80
2022/11/28 03:17:50;;;;;;;;;;;5.90;99.90;;;;;;5051764;28;19920;-79
2022/11/28 03:20:45;;;;;;;;;;;6.00;99.90;;;;;;5050930;28;20622;-80
2022/11/28 03:23:34;;;;;;;;;;;6.00;99.90;;;;;;5038491;28;20051;-80
2022/11/28 03:26:08;;;;;;;;;;;6.00;99.90;;;;;;5047324;28;20331;-80
2022/11/28 03:28:37;;;;;;;;;;;6.00;99.90;;;;;;5043105;28;19925;-80
2022/11/28 03:31:05;;;;;;;;;;;6.00;99.90;;;;;;5058456;28;19964;-80
2022/11/28 03:33:34;;;;;;;;;;;6.00;99.90;;;;;;5056196;28;20389;-80
2022/11/28 03:36:03;;;;;;;;;;;6.00;99.90;;;;;;5053498;28;19952;-80
2022/11/28 03:38:40;;;;;;;;;;;6.00;99.90;;;;;;5053364;28;19921;-80
2022/11/28 03:41:09;;;;;;;;;;;6.10;99.90;;;;;;5039149;28;19925;-80
2022/11/28 03:43:38;;;;;;;;;;;6.50;99.90;;;;;;5045186;28;20297;-80
2022/11/28 03:46:07;;;;;;;;;;;6.10;99.90;;;;;;5036948;28;19972;-80
2022/11/28 03:48:34;;;;;;;;;;;6.10;99.90;;;;;;5050718;28;19924;-80
2022/11/28 03:51:18;;;;;;;;;;;6.10;99.90;;;;;;5035962;28;20321;-80
2022/11/28 03:53:50;;;;;;;;;;;6.10;99.90;;;;;;5057517;28;19920;-79
2022/11/28 03:56:20;;;;;;;;;;;6.10;99.90;;;;;;5045464;28;19921;-79
2022/11/28 03:58:48;;;;;;;;;;;6.10;99.90;;;;;;5065457;28;20030;-80
2022/11/28 04:01:25;;;;;;;;;;;6.10;99.90;;;;;;5045371;28;20361;-80
2022/11/28 04:03:51;;;;;;;;;;;6.10;99.90;;;;;;5059488;28;19927;-80
2022/11/28 04:06:20;;;;;;;;;;;6.10;99.90;;;;;;5043574;28;19984;-80
2022/11/28 04:08:55;;;;;;;;;;;6.10;99.90;;;;;;5045262;28;19920;-80
2022/11/28 04:11:27;;;;;;;;;;;6.10;99.90;;;;;;5047257;28;19928;-80
2022/11/28 04:14:07;;;;;;;;;;;6.10;99.90;;;;;;5040305;28;19999;-80
2022/11/28 04:16:39;;;;;;;;;;;6.10;99.90;;;;;;5044997;28;19975;-79
2022/11/28 04:19:23;;;;;;;;;;;6.10;99.90;;;;;;5047489;28;19925;-79
2022/11/28 04:21:53;;;;;;;;;;;6.10;99.90;;;;;;5063042;28;19975;-80
2022/11/28 04:24:22;;;;;;;;;;;6.10;99.90;;;;;;5064314;28;19920;-80
2022/11/28 04:26:49;;;;;;;;;;;6.10;99.90;;;;;;5038516;28;19968;-80
2022/11/28 04:29:17;;;;;;;;;;;6.10;99.90;;;;;;5047977;28;19950;-80
2022/11/28 04:31:43;;;;;;;;;;;6.80;99.90;;;;;;5047597;28;19927;-80
2022/11/28 04:34:10;;;;;;;;;;;6.10;99.90;;;;;;5045288;28;20642;-80
2022/11/28 04:36:37;;;;;;;;;;;6.30;99.90;;;;;;5060097;28;19920;-80
2022/11/28 04:39:05;;;;;;;;;;;6.20;99.90;;;;;;5063320;28;19978;-80
2022/11/28 04:41:39;;;;;;;;;;;7.00;99.90;;;;;;5057274;28;19931;-80
2022/11/28 04:44:11;;;;;;;;;;;6.20;99.90;;;;;;5055805;28;21527;-80
2022/11/28 04:46:39;;;;;;;;;;;6.40;99.90;;;;;;5052590;28;19925;-80
2022/11/28 04:49:04;;;;;;;;;;;6.20;99.90;;;;;;5055884;28;19924;-80
2022/11/28 04:51:53;;;;;;;;;;;6.60;99.90;;;;;;5056463;28;19930;-80
2022/11/28 04:54:25;;;;;;;;;;;6.30;99.90;;;;;;5054984;28;19928;-80
2022/11/28 04:57:01;;;;;;;;;;;6.40;99.90;;;;;;5043189;28;19921;-79
2022/11/28 04:59:29;;;;;;;;;;;6.70;99.90;;;;;;5049472;28;20131;-79
2022/11/28 05:01:57;;;;;;;;;;;6.50;99.90;;;;;;5054867;28;19928;-80
2022/11/28 05:04:22;;;;;;;;;;;6.40;99.90;;;;;;5037592;28;20329;-80
2022/11/28 05:06:48;;;;;;;;;;;7.40;99.90;;;;;;5050390;28;19920;-80
2022/11/28 05:09:14;;;;;;;;;;;6.50;99.90;;;;;;5036693;28;19928;-79
2022/11/28 05:11:40;;;;;;;;;;;6.50;99.90;;;;;;5057135;28;20015;-79
2022/11/28 05:14:05;;;;;;;;;;;6.60;99.90;;;;;;5056905;28;19951;-80
2022/11/28 05:16:31;;;;;;;;;;;7.00;99.90;;;;;;5039640;28;19956;-80
2022/11/28 05:18:56;;;;;;;;;;;6.60;99.90;;;;;;5025156;28;20339;-80
2022/11/28 05:21:22;;;;;;;;;;;6.60;99.90;;;;;;5055713;28;19933;-79
2022/11/28 05:23:48;;;;;;;;;;;6.70;99.90;;;;;;5053092;28;19920;-80
2022/11/28 05:26:18;;;;;;;;;;;6.70;99.90;;;;;;5025698;28;20378;-80
2022/11/28 05:28:48;;;;;;;;;;;6.70;99.90;;;;;;5059105;28;19971;-78
2022/11/28 05:31:14;;;;;;;;;;;6.70;99.90;;;;;;5061692;28;20126;-80
2022/11/28 05:33:40;;;;;;;;;;;6.80;99.90;;;;;;5059155;28;19920;-80
2022/11/28 05:36:06;;;;;;;;;;;6.80;99.90;;;;;;5044994;28;19928;-80
2022/11/28 05:38:32;;;;;;;;;;;6.80;99.90;;;;;;5027209;28;19929;-80
2022/11/28 05:40:58;;;;;;;;;;;6.80;99.90;;;;;;5058592;28;20574;-80
2022/11/28 05:43:24;;;;;;;;;;;7.20;99.90;;;;;;5042262;28;20371;-80
2022/11/28 05:45:50;;;;;;;;;;;6.80;99.90;;;;;;5046854;28;19921;-79
2022/11/28 05:48:15;;;;;;;;;;;6.80;99.90;;;;;;5051372;28;19920;-81
2022/11/28 05:50:41;;;;;;;;;;;6.80;99.90;;;;;;5029295;28;19924;-79
2022/11/28 05:53:07;;;;;;;;;;;7.10;99.90;;;;;;5057633;28;21312;-80
2022/11/28 05:55:33;;;;;;;;;;;6.90;99.90;;;;;;5042457;28;19932;-80
2022/11/28 05:57:58;;;;;;;;;;;6.90;99.90;;;;;;5027703;28;20059;-80
2022/11/28 06:00:24;;;;;;;;;;;6.80;99.90;;;;;;5043484;28;19925;-80
2022/11/28 06:02:49;;;;;;;;;;;6.90;99.90;;;;;;5043014;28;20003;-80
2022/11/28 06:05:15;;;;;;;;;;;6.90;99.90;;;;;;5026559;28;20014;-80
2022/11/28 06:07:41;;;;;;;;;;;6.90;99.90;;;;;;5060780;28;20381;-80
2022/11/28 06:10:06;;;;;;;;;;;6.90;99.90;;;;;;5028245;28;19981;-79
2022/11/28 06:12:32;;;;;;;;;;;6.90;99.90;;;;;;5056935;28;19943;-79
2022/11/28 06:14:58;;;;;;;;;;;6.90;99.90;;;;;;5059881;28;20365;-80
2022/11/28 06:17:23;;;;;;;;;;;6.90;99.90;;;;;;5035774;28;19921;-80
2022/11/28 06:19:49;;;;;;;;;;;6.90;99.90;;;;;;5051651;28;19932;-80
2022/11/28 06:22:14;;;;;;;;;;;6.90;99.90;;;;;;5036265;28;19936;-80
2022/11/28 06:24:40;;;;;;;;;;;6.90;99.90;;;;;;5036859;28;20338;-80
2022/11/28 06:27:05;;;;;;;;;;;6.90;99.90;;;;;;5032451;28;20374;-80
2022/11/28 06:29:31;;;;;;;;;;;7.10;99.90;;;;;;5038967;28;19928;-80
2022/11/28 06:31:58;;;;;;;;;;;7.00;99.90;;;;;;5038656;28;19951;-81
2022/11/28 06:34:23;;;;;;;;;;;7.00;99.90;;;;;;5042296;28;20006;-80
2022/11/28 06:36:49;;;;;;;;;;;7.00;99.90;;;;;;5019078;28;20024;-80
2022/11/28 06:39:15;;;;;;;;;;;7.00;99.90;;;;;;5037932;28;20382;-80
2022/11/28 06:41:41;;;;;;;;;;;7.00;99.90;;;;;;5038916;28;20419;-80
2022/11/28 06:44:07;;;;;;;;;;;6.90;99.90;;;;;;5028436;28;20596;-80
2022/11/28 06:46:32;;;;;;;;;;;7.00;99.90;;;;;;5038598;28;19932;-80
2022/11/28 06:48:58;;;;;;;;;;;7.00;99.90;;;;;;5051610;28;20386;-80
2022/11/28 06:51:23;;;;;;;;;;;7.00;99.90;;;;;;5055223;28;20016;-79
2022/11/28 06:53:49;;;;;;;;;;;7.00;99.90;;;;;;5022599;28;19974;-80
2022/11/28 06:56:16;;;;;;;;;;;7.30;99.90;;;;;;5054242;28;19928;-80
2022/11/28 06:58:42;;;;;;;;;;;7.00;99.90;;;;;;5033661;28;19924;-80
2022/11/28 07:01:19;;;;;;;;;;;7.00;99.90;;;;;;5052455;28;19925;-80
2022/11/28 07:03:44;;;;;;;;;;;7.00;99.90;;;;;;5037476;28;20302;-80
2022/11/28 07:06:11;;;;;;;;;;;7.00;99.90;;;;;;5037174;28;19925;-80
2022/11/28 07:08:37;;;;;;;;;;;7.00;99.90;;;;;;5034067;28;19972;-80
2022/11/28 07:11:22;;;;;;;;;;;7.00;99.90;;;;;;5035599;28;19964;-80
2022/11/28 07:13:48;;;;;;;;;;;7.00;99.90;;;;;;5053219;28;19920;-80
2022/11/28 07:16:22;;;;;;;;;;;7.00;99.90;;;;;;5032034;28;19982;-79
2022/11/28 07:18:48;;;;;;;;;;;7.00;99.90;;;;;;5049236;28;19920;-79
2022/11/28 07:21:14;;;;;;;;;;;7.00;99.90;;;;;;5051825;28;19925;-79
2022/11/28 07:23:40;;;;;;;;;;;7.00;99.90;;;;;;5037077;28;19920;-80
2022/11/28 07:26:06;;;;;;;;;;;7.00;99.90;;;;;;5051152;28;19921;-79
2022/11/28 07:28:32;;;;;;;;;;;7.50;99.90;;;;;;5028057;28;20031;-79
2022/11/28 07:30:59;;;;;;;;;;;7.00;99.90;;;;;;5035755;28;19927;-80
2022/11/28 07:33:25;;;;;;;;;;;7.00;99.90;;;;;;5044158;28;19925;-80
2022/11/28 07:35:50;;;;;;;;;;;7.00;99.90;;;;;;5050794;28;19925;-80
2022/11/28 07:38:16;;;;;;;;;;;7.10;99.90;;;;;;5019885;28;19928;-80
2022/11/28 07:40:41;;;;;;;;;;;7.70;99.90;;;;;;5033875;28;20433;-80
2022/11/28 07:43:07;;;;;;;;;;;7.10;99.90;;;;;;5033870;28;20443;-80
2022/11/28 07:45:32;;;;;;;;;;;7.10;99.90;;;;;;5033439;28;19970;-80
2022/11/28 07:47:58;;;;;;;;;;;7.10;99.90;;;;;;5033346;28;19924;-79
2022/11/28 07:50:23;;;;;;;;;;;7.10;99.90;;;;;;5033211;28;19975;-79
2022/11/28 07:52:50;;;;;;;;;;;7.10;99.90;;;;;;5055436;28;19928;-80
2022/11/28 07:55:16;;;;;;;;;;;7.10;99.90;;;;;;5061603;28;19924;-79
2022/11/28 07:57:41;;;;;;;;;;;7.10;99.90;;;;;;5033661;28;20007;-79
2022/11/28 08:00:07;;;;;;;;;;;7.10;99.90;;;;;;5049359;28;19932;-79
2022/11/28 08:02:33;;;;;;;;;;;7.10;99.90;;;;;;5046382;28;20396;-79
2022/11/28 08:04:59;;;;;;;;;;;7.10;99.90;;;;;;5040716;28;19924;-79
2022/11/28 08:07:24;;;;;;;;;;;7.10;99.90;;;;;;5034806;28;19928;-79
2022/11/28 08:09:50;;;;;;;;;;;7.10;99.90;;;;;;5054481;28;19924;-79
2022/11/28 08:12:16;;;;;;;;;;;7.10;99.90;;;;;;5032268;28;19936;-79
2022/11/28 08:14:41;;;;;;;;;;;7.10;99.90;;;;;;5054583;28;19999;-79
2022/11/28 08:17:07;;;;;;;;;;;7.10;99.90;;;;;;5049033;28;19932;-79
2022/11/28 08:19:32;;;;;;;;;;;7.10;99.90;;;;;;5032809;28;19920;-79
2022/11/28 08:21:58;;;;;;;;;;;7.10;99.90;;;;;;5030621;28;19932;-79
2022/11/28 08:24:23;;;;;;;;;;;7.10;99.90;;;;;;5048838;28;19928;-79
2022/11/28 08:26:49;;;;;;;;;;;7.10;99.90;;;;;;5048497;28;19925;-79
2022/11/28 08:29:14;;;;;;;;;;;7.10;99.90;;;;;;5049068;28;19925;-79
2022/11/28 08:31:40;;;;;;;;;;;7.10;99.90;;;;;;5032650;28;19986;-78
2022/11/28 08:34:07;;;;;;;;;;;7.10;99.90;;;;;;5022881;28;19935;-79
2022/11/28 08:36:32;;;;;;;;;;;7.10;99.90;;;;;;5049905;28;19925;-79
2022/11/28 08:38:59;;;;;;;;;;;7.10;99.90;;;;;;5032641;28;20012;-79
2022/11/28 08:41:24;;;;;;;;;;;7.10;99.90;;;;;;5048812;28;19944;-79
2022/11/28 08:43:50;;;;;;;;;;;7.10;99.90;;;;;;5051025;28;20467;-78
2022/11/28 08:46:17;;;;;;;;;;;7.10;99.90;;;;;;5040793;28;19924;-79
2022/11/28 08:48:42;;;;;;;;;;;7.10;99.90;;;;;;5046912;28;19935;-79
2022/11/28 08:51:19;;;;;;;;;;;7.10;99.90;;;;;;5034140;28;19921;-79
2022/11/28 08:53:45;;;;;;;;;;;7.10;99.90;;;;;;5048195;28;19936;-79
2022/11/28 08:56:11;;;;;;;;;;;7.20;99.90;;;;;;5032693;28;19920;-79
2022/11/28 08:58:37;;;;;;;;;;;7.20;99.90;;;;;;5051501;28;19921;-80
2022/11/28 09:01:03;;;;;;;;;;;7.20;99.90;;;;;;5047582;28;19925;-79
2022/11/28 09:03:28;;;;;;;;;;;7.20;99.90;;;;;;5048674;28;19921;-79
2022/11/28 09:05:58;;;;;;;;;;;7.20;99.90;;;;;;5032046;28;19925;-79
2022/11/28 09:08:23;;;;;;;;;;;7.20;99.90;;;;;;5049193;28;19928;-79
2022/11/28 09:10:49;;;;;;;;;;;7.20;99.90;;;;;;5032053;28;19929;-79
2022/11/28 09:13:15;;;;;;;;;;;7.20;99.90;;;;;;5030311;28;19925;-79
2022/11/28 09:15:44;;;;;;;;;;;7.40;99.90;;;;;;5032872;28;19963;-80
2022/11/28 09:18:11;;;;;;;;;;;7.20;99.90;;;;;;5032291;28;19940;-79
2022/11/28 09:20:36;;;;;;;;;;;7.20;99.90;;;;;;5049199;28;19921;-79
2022/11/28 09:23:02;;;;;;;;;;;7.20;99.90;;;;;;5032179;28;19921;-80
2022/11/28 09:25:27;;;;;;;;;;;7.20;99.90;;;;;;5032832;28;19927;-80
2022/11/28 09:27:53;;;;;;;;;;;7.20;99.90;;;;;;5031537;28;20440;-80
2022/11/28 09:30:21;;;;;;;;;;;7.30;99.90;;;;;;5049112;28;19917;-80
2022/11/28 09:32:50;;;;;;;;;;;7.30;99.90;;;;;;5031746;28;19928;-80
2022/11/28 09:35:16;;;;;;;;;;;7.50;99.90;;;;;;5032500;28;19947;-80
2022/11/28 09:37:42;;;;;;;;;;;7.30;99.90;;;;;;5032439;28;19925;-79
2022/11/28 09:40:30;;;;;;;;;;;8.00;99.90;;;;;;5032663;28;19924;-80
2022/11/28 09:42:57;;;;;;;;;;;7.30;99.90;;;;;;5032060;28;20091;-80
2022/11/28 09:45:23;;;;;;;;;;;7.30;99.90;;;;;;5045975;28;19971;-81
2022/11/28 09:47:59;;;;;;;;;;;7.60;99.90;;;;;;5037796;28;19964;-81
2022/11/28 09:50:27;;;;;;;;;;;7.40;99.90;;;;;;5037545;28;19928;-80
2022/11/28 09:53:01;;;;;;;;;;;7.40;99.90;;;;;;5035700;28;20473;-80
2022/11/28 09:55:32;;;;;;;;;;;7.40;99.90;;;;;;5033897;28;20035;-82
2022/11/28 09:58:00;;;;;;;;;;;7.40;99.90;;;;;;5016300;28;19928;-81
2022/11/28 10:00:35;;;;;;;;;;;7.40;99.90;;;;;;5033008;28;19968;-82
2022/11/28 10:03:12;;;;;;;;;;;7.30;99.90;;;;;;5017729;28;21481;-82
2022/11/28 10:05:52;;;;;;;;;;;7.30;99.90;;;;;;5035100;28;19979;-82
2022/11/28 10:08:24;;;;;;;;;;;7.40;99.90;;;;;;5018637;28;19928;-82
2022/11/28 10:10:56;;;;;;;;;;;7.30;99.90;;;;;;5018895;28;20003;-82
2022/11/28 10:13:26;;;;;;;;;;;7.40;99.90;;;;;;5039116;28;19971;-82
2022/11/28 10:16:09;;;;;;;;;;;7.40;99.90;;;;;;5022165;28;20539;-82
2022/11/28 10:18:41;;;;;;;;;;;7.40;99.90;;;;;;5036764;28;19928;-82
2022/11/28 10:21:25;;;;;;;;;;;7.40;99.90;;;;;;5037749;28;20480;-81
2022/11/28 10:23:53;;;;;;;;;;;7.40;99.90;;;;;;5037640;28;19936;-81
2022/11/28 10:26:34;;;;;;;;;;;7.40;99.90;;;;;;5036861;28;19937;-81
2022/11/28 10:29:03;;;;;;;;;;;7.40;99.90;;;;;;5036198;28;20355;-81
2022/11/28 10:31:35;;;;;;;;;;;7.50;99.90;;;;;;5036696;28;19924;-82
2022/11/28 10:34:05;;;;;;;;;;;7.40;99.90;;;;;;5040190;28;19971;-82
2022/11/28 10:36:45;;;;;;;;;;;7.40;99.90;;;;;;5037352;28;19947;-81
2022/11/28 10:39:11;;;;;;;;;;;7.40;99.90;;;;;;5037564;28;19921;-82
2022/11/28 10:41:45;;;;;;;;;;;7.40;99.90;;;;;;5036793;28;19928;-82
2022/11/28 10:44:20;;;;;;;;;;;7.40;99.90;;;;;;5035544;28;20336;-82
2022/11/28 10:46:53;;;;;;;;;;;7.40;99.90;;;;;;5035044;28;19982;-82
2022/11/28 10:49:19;;;;;;;;;;;7.40;99.90;;;;;;5020328;28;19932;-83
2022/11/28 10:51:45;;;;;;;;;;;7.40;99.90;;;;;;5019473;28;19932;-82
2022/11/28 10:54:16;;;;;;;;;;;7.40;99.90;;;;;;5038182;28;19994;-80
2022/11/28 10:56:57;;;;;;;;;;;7.40;99.90;;;;;;5020886;28;19920;-80
2022/11/28 10:59:25;;;;;;;;;;;7.40;99.90;;;;;;5037537;28;20370;-81
2022/11/28 11:01:52;;;;;;;;;;;7.40;99.90;;;;;;5034889;28;20021;-80
2022/11/28 11:04:19;;;;;;;;;;;7.40;99.90;;;;;;5036723;28;20043;-82
2022/11/28 11:06:56;;;;;;;;;;;7.40;99.90;;;;;;5020179;28;19935;-82
2022/11/28 11:09:21;;;;;;;;;;;7.40;99.90;;;;;;5036524;28;19940;-82
2022/11/28 11:11:52;;;;;;;;;;;7.40;99.90;;;;;;5001564;28;20410;-82
2022/11/28 11:14:30;;;;;;;;;;;7.40;99.90;;;;;;5036648;28;20762;-82
2022/11/28 11:16:58;;;;;;;;;;;7.50;99.90;;;;;;5037424;28;20562;-81
2022/11/28 11:19:32;;;;;;;;;;;7.40;99.90;;;;;;5038077;28;19920;-82
2022/11/28 11:22:18;;;;;;;;;;;7.50;99.90;;;;;;5036548;28;20016;-82
2022/11/28 11:25:02;;;;;;;;;;;7.50;99.90;;;;;;5019323;28;20031;-81
2022/11/28 11:27:28;;;;;;;;;;;7.50;99.90;;;;;;5019940;28;20412;-80
2022/11/28 11:29:54;;;;;;;;;;;7.40;99.90;;;;;;5021949;28;20686;-81
2022/11/28 11:32:23;;;;;;;;;;;7.50;99.90;;;;;;4999531;28;19929;-80
2022/11/28 11:34:49;;;;;;;;;;;7.50;99.90;;;;;;5018333;28;19929;-81
2022/11/28 11:37:18;;;;;;;;;;;7.50;99.90;;;;;;5024433;28;19929;-80
2022/11/28 11:39:51;;;;;;;;;;;7.50;99.90;;;;;;5040111;28;19921;-82
2022/11/28 11:42:27;;;;;;;;;;;7.50;99.90;;;;;;5039309;28;21470;-83
2022/11/28 11:44:53;;;;;;;;;;;7.50;99.90;;;;;;5024201;28;20309;-82
2022/11/28 11:47:18;;;;;;;;;;;7.60;99.90;;;;;;5039635;28;19928;-82
2022/11/28 11:49:48;;;;;;;;;;;7.60;99.90;;;;;;5023415;28;19921;-82
2022/11/28 11:52:16;;;;;;;;;;;7.50;99.90;;;;;;5023472;28;20611;-82
2022/11/28 11:55:01;;;;;;;;;;;7.60;99.90;;;;;;5039564;28;19928;-82
2022/11/28 11:57:37;;;;;;;;;;;7.60;99.90;;;;;;5038521;28;19975;-82
2022/11/28 12:00:14;;;;;;;;;;;7.50;99.90;;;;;;5018202;28;19980;-81
2022/11/28 12:02:51;;;;;;;;;;;7.50;99.90;;;;;;5036474;28;19925;-82
2022/11/28 12:05:26;;;;;;;;;;;7.50;99.90;;;;;;5020285;28;19928;-82
2022/11/28 12:07:58;;;;;;;;;;;7.50;99.90;;;;;;5034429;28;19943;-82
2022/11/28 12:10:26;;;;;;;;;;;7.50;99.90;;;;;;5020150;28;19933;-80
2022/11/28 12:12:51;;;;;;;;;;;7.50;99.90;;;;;;5037216;28;20574;-79
2022/11/28 12:15:21;;;;;;;;;;;7.50;99.90;;;;;;5044380;28;19921;-82
2022/11/28 12:17:56;;;;;;;;;;;7.70;99.90;;;;;;5028270;28;19939;-82
2022/11/28 12:20:27;;;;;;;;;;;7.50;99.90;;;;;;5028842;28;20109;-82
2022/11/28 12:22:53;;;;;;;;;;;7.50;99.90;;;;;;5058601;28;20006;-82
2022/11/28 12:25:32;;;;;;;;;;;7.60;99.90;;;;;;5026949;28;19929;-80
2022/11/28 12:28:17;;;;;;;;;;;7.50;99.90;;;;;;5027928;28;19960;-82
2022/11/28 12:31:01;;;;;;;;;;;7.50;99.90;;;;;;5029130;28;19990;-81
2022/11/28 12:33:39;;;;;;;;;;;7.50;99.90;;;;;;5048178;28;20045;-81
2022/11/28 12:36:11;;;;;;;;;;;7.50;99.90;;;;;;5046908;28;20008;-80
2022/11/28 12:38:42;;;;;;;;;;;7.50;99.90;;;;;;5031574;28;19935;-80
2022/11/28 12:41:14;;;;;;;;;;;7.50;99.90;;;;;;5048236;28;20412;-81
2022/11/28 12:43:52;;;;;;;;;;;7.50;99.90;;;;;;5029590;28;20398;-81
2022/11/28 12:46:26;;;;;;;;;;;7.50;99.90;;;;;;5028156;28;20045;-81
2022/11/28 12:49:07;;;;;;;;;;;7.50;99.90;;;;;;5043459;28;19920;-81
2022/11/28 12:51:53;;;;;;;;;;;7.50;99.90;;;;;;5025942;28;19921;-81
2022/11/28 12:54:19;;;;;;;;;;;7.50;99.90;;;;;;5044625;28;19932;-81
2022/11/28 12:56:49;;;;;;;;;;;7.50;99.90;;;;;;5041657;28;19974;-81
2022/11/28 12:59:36;;;;;;;;;;;7.50;99.90;;;;;;5026363;28;19974;-81
2022/11/28 13:02:16;;;;;;;;;;;7.50;99.90;;;;;;5024441;28;20249;-82
2022/11/28 13:04:42;;;;;;;;;;;7.50;99.90;;;;;;5023340;28;19932;-80
2022/11/28 13:07:19;;;;;;;;;;;7.50;99.90;;;;;;5040960;28;19933;-82
2022/11/28 13:09:45;;;;;;;;;;;7.50;99.90;;;;;;5040860;28;19984;-80
2022/11/28 13:12:16;;;;;;;;;;;7.50;99.90;;;;;;5034227;28;20414;-84
2022/11/28 13:14:56;;;;;;;;;;;7.60;99.90;;;;;;5036191;28;20018;-84
2022/11/28 13:17:31;;;;;;;;;;;7.60;99.90;;;;;;5040192;28;20019;-84
2022/11/28 13:20:02;;;;;;;;;;;7.60;99.90;;;;;;5050513;28;19928;-84
2022/11/28 13:22:33;;;;;;;;;;;7.60;99.90;;;;;;5067711;28;20389;-84
2022/11/28 13:25:17;;;;;;;;;;;7.60;99.90;;;;;;5055269;28;19927;-82
2022/11/28 13:27:48;;;;;;;;;;;7.60;99.90;;;;;;5050848;28;20012;-81
2022/11/28 13:30:21;;;;;;;;;;;7.60;99.90;;;;;;5058701;28;19927;-82
2022/11/28 13:32:47;;;;;;;;;;;7.60;99.90;;;;;;5041940;28;19952;-84
2022/11/28 13:35:14;;;;;;;;;;;7.60;99.90;;;;;;5060536;28;19921;-82
2022/11/28 13:37:42;;;;;;;;;;;7.60;99.90;;;;;;5055358;28;20401;-81
2022/11/28 13:40:11;;;;;;;;;;;7.60;99.90;;;;;;5045344;28;19933;-82
2022/11/28 13:42:46;;;;;;;;;;;7.60;99.90;;;;;;5034985;28;19933;-81
2022/11/28 13:45:20;;;;;;;;;;;7.60;99.90;;;;;;5045052;28;19920;-81
2022/11/28 13:47:46;;;;;;;;;;;7.60;99.90;;;;;;5043766;28;20005;-82
2022/11/28 13:50:24;;;;;;;;;;;7.60;99.90;;;;;;5041568;28;19968;-81
2022/11/28 13:53:05;;;;;;;;;;;7.50;99.90;;;;;;5055855;28;20447;-81
2022/11/28 13:55:38;;;;;;;;;;;7.50;99.90;;;;;;5040963;28;19928;-81
2022/11/28 13:58:16;;;;;;;;;;;7.50;99.90;;;;;;5065218;28;20486;-81
2022/11/28 14:00:42;;;;;;;;;;;7.50;99.90;;;;;;5056547;28;19929;-81
2022/11/28 14:03:17;;;;;;;;;;;7.60;99.90;;;;;;5060255;28;19925;-81
2022/11/28 14:05:43;;;;;;;;;;;7.60;99.90;;;;;;5020596;28;19921;-80
2022/11/28 14:08:22;;;;;;;;;;;7.60;99.90;;;;;;5052592;28;19920;-81
2022/11/28 14:10:55;;;;;;;;;;;7.50;99.90;;;;;;5053317;28;19927;-81
2022/11/28 14:13:39;;;;;;;;;;;7.60;99.90;;;;;;5036750;28;19959;-79
2022/11/28 14:16:26;;;;;;;;;;;7.60;99.90;;;;;;5060464;28;20390;-81
2022/11/28 14:19:01;;;;;;;;;;;7.60;99.90;;;;;;5059730;28;19928;-81
2022/11/28 14:21:36;;;;;;;;;;;7.60;99.90;;;;;;5043528;28;19983;-80
2022/11/28 14:24:07;;;;;;;;;;;7.60;99.90;;;;;;5039770;28;19925;-80
2022/11/28 14:26:34;;;;;;;;;;;7.50;99.90;;;;;;5062004;28;19952;-81
2022/11/28 14:29:01;;;;;;;;;;;7.60;99.90;;;;;;5057866;28;19921;-80
2022/11/28 14:31:37;;;;;;;;;;;7.60;99.90;;;;;;5045274;28;19997;-81
2022/11/28 14:34:26;;;;;;;;;;;7.60;99.90;;;;;;5066497;28;20386;-81
2022/11/28 14:37:11;;;;;;;;;;;7.60;99.90;;;;;;5040283;28;19920;-81
2022/11/28 14:39:37;;;;;;;;;;;7.60;99.90;;;;;;5054339;28;19974;-80
2022/11/28 14:42:03;;;;;;;;;;;7.60;99.90;;;;;;5046871;28;19924;-80
2022/11/28 14:44:49;;;;;;;;;;;7.50;99.90;;;;;;5057974;28;19924;-80
2022/11/28 14:47:44;;;;;;;;;;;7.50;99.90;;;;;;5045358;28;19920;-79